sensor_id;sensor_type;location;lat;lon;timestamp;temperature;humidity
42663;DHT22;44330;51.360;6.686;2023-03-14T00:01:14;11.80;1.00
42663;DHT22;44330;51.360;6.686;2023-03-14T00:03:40;11.80;1.00
42663;DHT22;44330;51.360;6.686;2023-03-14T00:06:06;11.80;1.00
42663;DHT22;44330;51.360;6.686;2023-03-14T00:08:32;11.80;1.00
42663;DHT22;44330;51.360;6.686;2023-03-14T00:10:57;11.80;1.00
42663;DHT22;44330;51.360;6.686;2023-03-14T00:13:24;11.80;1.00
42663;DHT22;44330;51.360;6.686;2023-03-14T00:15:49;11.80;1.00
42663;DHT22;44330;51.360;6.686;2023-03-14T00:18:15;11.80;1.00
42663;DHT22;44330;51.360;6.686;2023-03-14T00:20:41;12.00;1.00
42663;DHT22;44330;51.360;6.686;2023-03-14T00:23:06;12.00;1.00
42663;DHT22;44330;51.360;6.686;2023-03-14T00:25:32;12.00;1.00
42663;DHT22;44330;51.360;6.686;2023-03-14T00:27:57;12.10;1.00
42663;DHT22;44330;51.360;6.686;2023-03-14T00:30:23;12.10;14.60
42663;DHT22;44330;51.360;6.686;2023-03-14T00:32:48;11.90;29.80
42663;DHT22;44330;51.360;6.686;2023-03-14T00:35:15;11.70;48.20
42663;DHT22;44330;51.360;6.686;2023-03-14T00:37:40;11.50;56.60
42663;DHT22;44330;51.360;6.686;2023-03-14T00:40:07;11.40;62.50
42663;DHT22;44330;51.360;6.686;2023-03-14T00:42:33;11.20;66.00
42663;DHT22;44330;51.360;6.686;2023-03-14T00:44:59;11.10;66.20
42663;DHT22;44330;51.360;6.686;2023-03-14T00:47:24;10.90;69.00
42663;DHT22;44330;51.360;6.686;2023-03-14T00:49:50;10.80;69.80
42663;DHT22;44330;51.360;6.686;2023-03-14T00:52:15;10.70;69.10
42663;DHT22;44330;51.360;6.686;2023-03-14T00:54:41;10.70;68.80
42663;DHT22;44330;51.360;6.686;2023-03-14T00:57:07;10.60;69.50
42663;DHT22;44330;51.360;6.686;2023-03-14T00:59:32;10.60;73.30
42663;DHT22;44330;51.360;6.686;2023-03-14T01:01:58;10.60;73.60
42663;DHT22;44330;51.360;6.686;2023-03-14T01:04:26;10.50;76.10
42663;DHT22;44330;51.360;6.686;2023-03-14T01:06:52;10.50;76.40
42663;DHT22;44330;51.360;6.686;2023-03-14T01:09:17;10.50;75.40
42663;DHT22;44330;51.360;6.686;2023-03-14T01:11:43;10.60;75.00
42663;DHT22;44330;51.360;6.686;2023-03-14T01:14:12;10.50;75.10
42663;DHT22;44330;51.360;6.686;2023-03-14T01:16:38;10.50;75.90
42663;DHT22;44330;51.360;6.686;2023-03-14T01:19:04;10.50;75.60
42663;DHT22;44330;51.360;6.686;2023-03-14T01:21:32;10.50;75.30
42663;DHT22;44330;51.360;6.686;2023-03-14T01:24:01;10.50;75.10
42663;DHT22;44330;51.360;6.686;2023-03-14T01:26:28;10.50;74.90
42663;DHT22;44330;51.360;6.686;2023-03-14T01:28:55;10.40;74.10
42663;DHT22;44330;51.360;6.686;2023-03-14T01:31:22;10.40;72.20
42663;DHT22;44330;51.360;6.686;2023-03-14T01:33:48;10.40;72.10
42663;DHT22;44330;51.360;6.686;2023-03-14T01:36:14;10.40;70.60
42663;DHT22;44330;51.360;6.686;2023-03-14T01:38:40;10.40;70.20
42663;DHT22;44330;51.360;6.686;2023-03-14T01:41:07;10.30;71.60
42663;DHT22;44330;51.360;6.686;2023-03-14T01:43:33;10.30;70.20
42663;DHT22;44330;51.360;6.686;2023-03-14T01:48:44;10.30;72.60
42663;DHT22;44330;51.360;6.686;2023-03-14T01:51:20;10.30;74.20
42663;DHT22;44330;51.360;6.686;2023-03-14T01:53:48;10.30;74.40
42663;DHT22;44330;51.360;6.686;2023-03-14T01:56:17;10.30;74.30
42663;DHT22;44330;51.360;6.686;2023-03-14T01:58:46;10.20;73.40
42663;DHT22;44330;51.360;6.686;2023-03-14T02:01:16;10.30;72.70
42663;DHT22;44330;51.360;6.686;2023-03-14T02:03:50;10.30;71.60
42663;DHT22;44330;51.360;6.686;2023-03-14T02:06:21;10.30;72.60
42663;DHT22;44330;51.360;6.686;2023-03-14T02:08:47;10.20;73.70
42663;DHT22;44330;51.360;6.686;2023-03-14T02:11:15;10.30;73.20
42663;DHT22;44330;51.360;6.686;2023-03-14T02:13:41;10.30;71.80
42663;DHT22;44330;51.360;6.686;2023-03-14T02:16:07;10.30;71.60
42663;DHT22;44330;51.360;6.686;2023-03-14T02:18:33;10.30;71.90
42663;DHT22;44330;51.360;6.686;2023-03-14T02:26:15;10.30;73.70
42663;DHT22;44330;51.360;6.686;2023-03-14T02:28:41;10.30;72.80
42663;DHT22;44330;51.360;6.686;2023-03-14T02:31:07;10.30;71.30
42663;DHT22;44330;51.360;6.686;2023-03-14T02:33:35;10.40;71.30
42663;DHT22;44330;51.360;6.686;2023-03-14T02:36:05;10.40;71.50
42663;DHT22;44330;51.360;6.686;2023-03-14T02:38:47;10.50;71.10
42663;DHT22;44330;51.360;6.686;2023-03-14T02:41:15;10.60;70.30
42663;DHT22;44330;51.360;6.686;2023-03-14T02:43:41;10.50;70.00
42663;DHT22;44330;51.360;6.686;2023-03-14T02:46:10;10.60;65.60
42663;DHT22;44330;51.360;6.686;2023-03-14T02:48:43;10.60;65.80
42663;DHT22;44330;51.360;6.686;2023-03-14T02:51:10;10.50;66.10
42663;DHT22;44330;51.360;6.686;2023-03-14T02:53:37;10.50;67.20
42663;DHT22;44330;51.360;6.686;2023-03-14T02:56:04;10.50;67.20
42663;DHT22;44330;51.360;6.686;2023-03-14T02:58:30;10.40;67.50
42663;DHT22;44330;51.360;6.686;2023-03-14T03:00:55;10.40;71.00
42663;DHT22;44330;51.360;6.686;2023-03-14T03:03:21;10.40;70.60
42663;DHT22;44330;51.360;6.686;2023-03-14T03:05:51;10.40;69.90
42663;DHT22;44330;51.360;6.686;2023-03-14T03:08:21;10.50;67.80
42663;DHT22;44330;51.360;6.686;2023-03-14T03:10:48;10.40;64.20
42663;DHT22;44330;51.360;6.686;2023-03-14T03:13:13;10.50;62.40
42663;DHT22;44330;51.360;6.686;2023-03-14T03:15:39;10.40;64.10
42663;DHT22;44330;51.360;6.686;2023-03-14T03:18:06;10.40;62.30
42663;DHT22;44330;51.360;6.686;2023-03-14T03:20:31;10.40;61.70
42663;DHT22;44330;51.360;6.686;2023-03-14T03:22:58;10.30;62.30
42663;DHT22;44330;51.360;6.686;2023-03-14T03:25:24;10.30;64.80
42663;DHT22;44330;51.360;6.686;2023-03-14T03:27:49;10.30;64.20
42663;DHT22;44330;51.360;6.686;2023-03-14T03:30:15;10.40;62.90
42663;DHT22;44330;51.360;6.686;2023-03-14T03:32:41;10.40;63.50
42663;DHT22;44330;51.360;6.686;2023-03-14T03:35:07;10.40;68.70
42663;DHT22;44330;51.360;6.686;2023-03-14T03:37:33;10.30;74.30
42663;DHT22;44330;51.360;6.686;2023-03-14T03:39:59;10.20;77.60
42663;DHT22;44330;51.360;6.686;2023-03-14T03:42:27;10.20;79.70
42663;DHT22;44330;51.360;6.686;2023-03-14T03:44:52;10.20;79.90
42663;DHT22;44330;51.360;6.686;2023-03-14T03:47:18;10.20;80.60
42663;DHT22;44330;51.360;6.686;2023-03-14T03:49:44;10.20;81.00
42663;DHT22;44330;51.360;6.686;2023-03-14T03:52:09;10.20;81.40
42663;DHT22;44330;51.360;6.686;2023-03-14T03:54:35;10.20;80.50
42663;DHT22;44330;51.360;6.686;2023-03-14T03:57:01;10.20;79.50
42663;DHT22;44330;51.360;6.686;2023-03-14T03:59:26;10.20;79.60
42663;DHT22;44330;51.360;6.686;2023-03-14T04:01:52;10.30;78.70
42663;DHT22;44330;51.360;6.686;2023-03-14T04:05:03;10.30;77.80
42663;DHT22;44330;51.360;6.686;2023-03-14T04:07:32;10.30;77.90
42663;DHT22;44330;51.360;6.686;2023-03-14T04:09:57;10.30;80.30
42663;DHT22;44330;51.360;6.686;2023-03-14T04:12:23;10.20;82.20
42663;DHT22;44330;51.360;6.686;2023-03-14T04:14:48;10.10;83.80
42663;DHT22;44330;51.360;6.686;2023-03-14T04:17:14;10.00;86.90
42663;DHT22;44330;51.360;6.686;2023-03-14T04:19:39;9.90;89.00
42663;DHT22;44330;51.360;6.686;2023-03-14T04:22:05;9.80;90.00
42663;DHT22;44330;51.360;6.686;2023-03-14T04:24:31;9.80;90.60
42663;DHT22;44330;51.360;6.686;2023-03-14T04:26:56;9.70;90.80
42663;DHT22;44330;51.360;6.686;2023-03-14T04:29:22;9.70;91.40
42663;DHT22;44330;51.360;6.686;2023-03-14T04:31:48;9.60;91.60
42663;DHT22;44330;51.360;6.686;2023-03-14T04:34:14;9.60;92.00
42663;DHT22;44330;51.360;6.686;2023-03-14T04:36:39;9.60;92.40
42663;DHT22;44330;51.360;6.686;2023-03-14T04:39:05;9.60;92.30
42663;DHT22;44330;51.360;6.686;2023-03-14T04:41:30;9.60;92.50
42663;DHT22;44330;51.360;6.686;2023-03-14T04:43:56;9.50;92.80
42663;DHT22;44330;51.360;6.686;2023-03-14T04:46:21;9.50;92.90
42663;DHT22;44330;51.360;6.686;2023-03-14T04:48:47;9.40;93.00
42663;DHT22;44330;51.360;6.686;2023-03-14T04:51:12;9.40;93.10
42663;DHT22;44330;51.360;6.686;2023-03-14T04:53:38;9.40;93.20
42663;DHT22;44330;51.360;6.686;2023-03-14T04:56:04;9.30;93.60
42663;DHT22;44330;51.360;6.686;2023-03-14T04:58:29;9.30;93.80
42663;DHT22;44330;51.360;6.686;2023-03-14T05:00:55;9.30;94.10
42663;DHT22;44330;51.360;6.686;2023-03-14T05:03:20;9.30;94.10
42663;DHT22;44330;51.360;6.686;2023-03-14T05:05:47;9.30;94.00
42663;DHT22;44330;51.360;6.686;2023-03-14T05:08:38;9.30;94.20
42663;DHT22;44330;51.360;6.686;2023-03-14T05:11:04;9.30;94.20
42663;DHT22;44330;51.360;6.686;2023-03-14T05:13:30;9.30;94.20
42663;DHT22;44330;51.360;6.686;2023-03-14T05:16:04;9.30;94.30
42663;DHT22;44330;51.360;6.686;2023-03-14T05:18:30;9.10;94.40
42663;DHT22;44330;51.360;6.686;2023-03-14T05:20:56;9.20;94.60
42663;DHT22;44330;51.360;6.686;2023-03-14T05:23:21;9.10;94.70
42663;DHT22;44330;51.360;6.686;2023-03-14T05:25:47;9.20;94.90
42663;DHT22;44330;51.360;6.686;2023-03-14T05:28:12;9.10;94.90
42663;DHT22;44330;51.360;6.686;2023-03-14T05:30:38;9.10;95.20
42663;DHT22;44330;51.360;6.686;2023-03-14T05:33:04;9.10;95.40
42663;DHT22;44330;51.360;6.686;2023-03-14T05:35:29;9.10;95.50
42663;DHT22;44330;51.360;6.686;2023-03-14T05:37:55;9.10;95.60
42663;DHT22;44330;51.360;6.686;2023-03-14T05:40:20;9.10;95.70
42663;DHT22;44330;51.360;6.686;2023-03-14T05:42:49;8.90;95.60
42663;DHT22;44330;51.360;6.686;2023-03-14T05:45:15;9.10;95.80
42663;DHT22;44330;51.360;6.686;2023-03-14T05:47:40;9.10;95.90
42663;DHT22;44330;51.360;6.686;2023-03-14T05:50:06;9.10;95.90
42663;DHT22;44330;51.360;6.686;2023-03-14T05:52:35;9.10;96.00
42663;DHT22;44330;51.360;6.686;2023-03-14T05:55:00;9.20;96.10
42663;DHT22;44330;51.360;6.686;2023-03-14T05:57:26;9.20;96.10
42663;DHT22;44330;51.360;6.686;2023-03-14T05:59:51;9.20;96.10
42663;DHT22;44330;51.360;6.686;2023-03-14T06:02:17;9.20;96.10
42663;DHT22;44330;51.360;6.686;2023-03-14T06:04:42;9.30;96.20
42663;DHT22;44330;51.360;6.686;2023-03-14T06:07:08;9.30;96.20
42663;DHT22;44330;51.360;6.686;2023-03-14T06:09:37;9.40;96.20
42663;DHT22;44330;51.360;6.686;2023-03-14T06:12:03;9.40;96.10
42663;DHT22;44330;51.360;6.686;2023-03-14T06:14:28;9.50;96.10
42663;DHT22;44330;51.360;6.686;2023-03-14T06:16:54;9.50;96.00
42663;DHT22;44330;51.360;6.686;2023-03-14T06:19:20;9.60;96.00
42663;DHT22;44330;51.360;6.686;2023-03-14T06:21:46;9.60;95.90
42663;DHT22;44330;51.360;6.686;2023-03-14T06:24:11;9.60;95.90
42663;DHT22;44330;51.360;6.686;2023-03-14T06:26:37;9.60;96.00
42663;DHT22;44330;51.360;6.686;2023-03-14T06:29:02;9.70;96.10
42663;DHT22;44330;51.360;6.686;2023-03-14T06:31:34;9.70;95.90
42663;DHT22;44330;51.360;6.686;2023-03-14T06:34:00;9.70;95.80
42663;DHT22;44330;51.360;6.686;2023-03-14T06:36:25;9.80;95.70
42663;DHT22;44330;51.360;6.686;2023-03-14T06:38:51;9.80;95.60
42663;DHT22;44330;51.360;6.686;2023-03-14T06:41:17;9.80;95.40
42663;DHT22;44330;51.360;6.686;2023-03-14T06:43:42;9.90;95.10
42663;DHT22;44330;51.360;6.686;2023-03-14T06:46:08;9.90;95.00
42663;DHT22;44330;51.360;6.686;2023-03-14T06:48:34;9.90;95.10
42663;DHT22;44330;51.360;6.686;2023-03-14T06:50:59;10.00;94.90
42663;DHT22;44330;51.360;6.686;2023-03-14T06:53:25;9.90;94.80
42663;DHT22;44330;51.360;6.686;2023-03-14T06:55:50;10.00;94.70
42663;DHT22;44330;51.360;6.686;2023-03-14T06:58:16;10.00;94.90
42663;DHT22;44330;51.360;6.686;2023-03-14T07:00:46;9.90;95.10
42663;DHT22;44330;51.360;6.686;2023-03-14T07:03:46;10.00;95.20
42663;DHT22;44330;51.360;6.686;2023-03-14T07:06:16;10.10;95.20
42663;DHT22;44330;51.360;6.686;2023-03-14T07:09:23;10.20;94.70
42663;DHT22;44330;51.360;6.686;2023-03-14T07:14:56;10.20;94.30
42663;DHT22;44330;51.360;6.686;2023-03-14T07:17:24;10.20;94.20
42663;DHT22;44330;51.360;6.686;2023-03-14T07:19:50;10.30;94.20
42663;DHT22;44330;51.360;6.686;2023-03-14T07:22:16;10.30;94.00
42663;DHT22;44330;51.360;6.686;2023-03-14T07:24:41;10.40;94.30
42663;DHT22;44330;51.360;6.686;2023-03-14T07:27:07;10.40;94.30
42663;DHT22;44330;51.360;6.686;2023-03-14T07:29:32;10.40;94.20
42663;DHT22;44330;51.360;6.686;2023-03-14T07:31:58;10.40;94.30
42663;DHT22;44330;51.360;6.686;2023-03-14T07:34:24;10.50;94.10
42663;DHT22;44330;51.360;6.686;2023-03-14T07:36:52;10.50;94.30
42663;DHT22;44330;51.360;6.686;2023-03-14T07:39:20;10.40;94.60
42663;DHT22;44330;51.360;6.686;2023-03-14T07:41:45;10.50;94.20
42663;DHT22;44330;51.360;6.686;2023-03-14T07:44:11;10.50;94.00
42663;DHT22;44330;51.360;6.686;2023-03-14T07:46:36;10.40;94.40
42663;DHT22;44330;51.360;6.686;2023-03-14T07:49:02;10.40;94.60
42663;DHT22;44330;51.360;6.686;2023-03-14T07:51:28;10.50;94.90
42663;DHT22;44330;51.360;6.686;2023-03-14T07:53:53;10.50;95.00
42663;DHT22;44330;51.360;6.686;2023-03-14T07:56:19;10.50;95.20
42663;DHT22;44330;51.360;6.686;2023-03-14T07:58:44;10.50;95.20
42663;DHT22;44330;51.360;6.686;2023-03-14T08:01:10;10.50;95.00
42663;DHT22;44330;51.360;6.686;2023-03-14T08:03:36;10.50;95.20
42663;DHT22;44330;51.360;6.686;2023-03-14T08:06:01;10.50;95.40
42663;DHT22;44330;51.360;6.686;2023-03-14T08:08:27;10.50;95.60
42663;DHT22;44330;51.360;6.686;2023-03-14T08:10:52;10.50;95.80
42663;DHT22;44330;51.360;6.686;2023-03-14T08:13:18;10.60;95.80
42663;DHT22;44330;51.360;6.686;2023-03-14T08:15:47;10.60;95.70
42663;DHT22;44330;51.360;6.686;2023-03-14T08:18:15;10.60;95.50
42663;DHT22;44330;51.360;6.686;2023-03-14T08:20:40;10.70;95.30
42663;DHT22;44330;51.360;6.686;2023-03-14T08:23:06;10.70;95.40
42663;DHT22;44330;51.360;6.686;2023-03-14T08:25:31;10.80;94.60
42663;DHT22;44330;51.360;6.686;2023-03-14T08:27:57;10.80;94.50
42663;DHT22;44330;51.360;6.686;2023-03-14T08:30:23;10.70;94.80
42663;DHT22;44330;51.360;6.686;2023-03-14T08:32:49;10.70;94.90
42663;DHT22;44330;51.360;6.686;2023-03-14T08:35:15;10.70;95.00
42663;DHT22;44330;51.360;6.686;2023-03-14T08:37:41;10.70;95.10
42663;DHT22;44330;51.360;6.686;2023-03-14T08:40:07;10.70;95.00
42663;DHT22;44330;51.360;6.686;2023-03-14T08:42:34;10.70;94.90
42663;DHT22;44330;51.360;6.686;2023-03-14T08:44:59;10.70;94.80
42663;DHT22;44330;51.360;6.686;2023-03-14T08:47:25;10.70;95.00
42663;DHT22;44330;51.360;6.686;2023-03-14T08:49:51;10.60;95.00
42663;DHT22;44330;51.360;6.686;2023-03-14T08:52:16;10.60;94.50
42663;DHT22;44330;51.360;6.686;2023-03-14T08:54:45;10.60;94.60
42663;DHT22;44330;51.360;6.686;2023-03-14T08:57:11;10.50;94.50
42663;DHT22;44330;51.360;6.686;2023-03-14T08:59:36;10.50;94.70
42663;DHT22;44330;51.360;6.686;2023-03-14T09:02:02;10.50;95.20
42663;DHT22;44330;51.360;6.686;2023-03-14T09:04:32;10.50;95.40
42663;DHT22;44330;51.360;6.686;2023-03-14T09:06:58;10.60;95.60
42663;DHT22;44330;51.360;6.686;2023-03-14T09:09:25;10.60;95.30
42663;DHT22;44330;51.360;6.686;2023-03-14T09:12:30;10.60;95.20
42663;DHT22;44330;51.360;6.686;2023-03-14T09:14:56;10.30;90.30
42663;DHT22;44330;51.360;6.686;2023-03-14T09:17:22;10.00;90.20
42663;DHT22;44330;51.360;6.686;2023-03-14T09:19:47;9.70;90.90
42663;DHT22;44330;51.360;6.686;2023-03-14T09:22:39;9.50;91.40
42663;DHT22;44330;51.360;6.686;2023-03-14T09:25:30;9.20;91.70
42663;DHT22;44330;51.360;6.686;2023-03-14T09:27:56;9.20;91.90
42663;DHT22;44330;51.360;6.686;2023-03-14T09:30:21;9.20;92.40
42663;DHT22;44330;51.360;6.686;2023-03-14T09:32:47;9.10;92.00
42663;DHT22;44330;51.360;6.686;2023-03-14T09:35:13;9.00;92.30
42663;DHT22;44330;51.360;6.686;2023-03-14T09:37:38;9.00;92.30
42663;DHT22;44330;51.360;6.686;2023-03-14T09:40:04;9.00;92.20
42663;DHT22;44330;51.360;6.686;2023-03-14T09:42:36;8.90;92.20
42663;DHT22;44330;51.360;6.686;2023-03-14T09:45:09;8.90;93.20
42663;DHT22;44330;51.360;6.686;2023-03-14T09:47:36;8.90;92.40
42663;DHT22;44330;51.360;6.686;2023-03-14T09:50:02;8.90;92.90
42663;DHT22;44330;51.360;6.686;2023-03-14T09:52:35;9.00;93.20
42663;DHT22;44330;51.360;6.686;2023-03-14T09:55:03;9.00;92.00
42663;DHT22;44330;51.360;6.686;2023-03-14T09:57:32;9.00;91.90
42663;DHT22;44330;51.360;6.686;2023-03-14T10:00:04;9.00;92.70
42663;DHT22;44330;51.360;6.686;2023-03-14T10:02:40;9.10;92.50
42663;DHT22;44330;51.360;6.686;2023-03-14T10:05:17;9.10;92.80
42663;DHT22;44330;51.360;6.686;2023-03-14T10:07:44;9.10;92.50
42663;DHT22;44330;51.360;6.686;2023-03-14T10:10:30;9.20;92.40
42663;DHT22;44330;51.360;6.686;2023-03-14T10:13:05;9.20;90.10
42663;DHT22;44330;51.360;6.686;2023-03-14T10:15:34;9.20;90.00
42663;DHT22;44330;51.360;6.686;2023-03-14T10:18:01;9.30;90.30
42663;DHT22;44330;51.360;6.686;2023-03-14T10:20:38;9.20;85.90
42663;DHT22;44330;51.360;6.686;2023-03-14T10:23:05;9.10;87.60
42663;DHT22;44330;51.360;6.686;2023-03-14T10:25:34;9.00;88.90
42663;DHT22;44330;51.360;6.686;2023-03-14T10:28:00;9.00;89.90
42663;DHT22;44330;51.360;6.686;2023-03-14T10:33:08;8.90;90.30
42663;DHT22;44330;51.360;6.686;2023-03-14T10:35:35;8.70;91.20
42663;DHT22;44330;51.360;6.686;2023-03-14T10:38:02;8.50;92.60
42663;DHT22;44330;51.360;6.686;2023-03-14T10:40:32;8.40;92.90
42663;DHT22;44330;51.360;6.686;2023-03-14T10:42:59;8.30;91.40
42663;DHT22;44330;51.360;6.686;2023-03-14T10:45:42;8.20;90.20
42663;DHT22;44330;51.360;6.686;2023-03-14T10:48:19;8.20;88.30
42663;DHT22;44330;51.360;6.686;2023-03-14T10:50:57;8.20;89.50
42663;DHT22;44330;51.360;6.686;2023-03-14T10:53:27;8.10;90.10
42663;DHT22;44330;51.360;6.686;2023-03-14T10:56:02;8.20;90.80
42663;DHT22;44330;51.360;6.686;2023-03-14T10:58:30;8.20;89.50
42663;DHT22;44330;51.360;6.686;2023-03-14T11:43:35;8.40;75.80
42663;DHT22;44330;51.360;6.686;2023-03-14T12:10:51;8.60;61.70
42663;DHT22;44330;51.360;6.686;2023-03-14T12:13:18;8.90;54.90
42663;DHT22;44330;51.360;6.686;2023-03-14T12:15:57;9.00;43.20
42663;DHT22;44330;51.360;6.686;2023-03-14T12:18:31;9.20;49.60
42663;DHT22;44330;51.360;6.686;2023-03-14T12:21:01;9.20;32.70
42663;DHT22;44330;51.360;6.686;2023-03-14T12:23:41;9.30;40.90
42663;DHT22;44330;51.360;6.686;2023-03-14T12:26:15;9.50;26.50
42663;DHT22;44330;51.360;6.686;2023-03-14T12:34:39;9.30;1.00
42663;DHT22;44330;51.360;6.686;2023-03-14T12:37:27;9.20;1.00
42663;DHT22;44330;51.360;6.686;2023-03-14T12:40:16;9.10;9.50
42663;DHT22;44330;51.360;6.686;2023-03-14T12:43:03;8.70;10.40
42663;DHT22;44330;51.360;6.686;2023-03-14T12:45:34;8.40;33.30
42663;DHT22;44330;51.360;6.686;2023-03-14T12:50:35;8.10;39.30
42663;DHT22;44330;51.360;6.686;2023-03-14T12:55:49;8.10;53.70
42663;DHT22;44330;51.360;6.686;2023-03-14T12:58:26;8.40;52.20
42663;DHT22;44330;51.360;6.686;2023-03-14T13:01:04;8.50;46.00
42663;DHT22;44330;51.360;6.686;2023-03-14T13:03:41;8.40;27.70
42663;DHT22;44330;51.360;6.686;2023-03-14T13:06:09;8.40;33.40
42663;DHT22;44330;51.360;6.686;2023-03-14T13:08:42;8.50;24.90
42663;DHT22;44330;51.360;6.686;2023-03-14T13:11:12;8.60;13.70
42663;DHT22;44330;51.360;6.686;2023-03-14T13:13:42;8.60;38.70
42663;DHT22;44330;51.360;6.686;2023-03-14T13:16:15;8.70;30.80
42663;DHT22;44330;51.360;6.686;2023-03-14T13:18:49;8.90;25.40
42663;DHT22;44330;51.360;6.686;2023-03-14T13:21:24;8.80;15.50
42663;DHT22;44330;51.360;6.686;2023-03-14T13:26:26;8.70;13.60
42663;DHT22;44330;51.360;6.686;2023-03-14T13:28:57;8.30;1.00
42663;DHT22;44330;51.360;6.686;2023-03-14T13:31:24;8.20;33.30
42663;DHT22;44330;51.360;6.686;2023-03-14T13:34:01;8.00;42.80
42663;DHT22;44330;51.360;6.686;2023-03-14T13:36:27;8.00;57.10
42663;DHT22;44330;51.360;6.686;2023-03-14T13:39:00;8.10;69.90
42663;DHT22;44330;51.360;6.686;2023-03-14T13:41:28;8.10;57.40
42663;DHT22;44330;51.360;6.686;2023-03-14T13:44:03;8.30;57.40
42663;DHT22;44330;51.360;6.686;2023-03-14T13:46:34;8.30;44.50
42663;DHT22;44330;51.360;6.686;2023-03-14T13:49:05;8.50;56.90
42663;DHT22;44330;51.360;6.686;2023-03-14T13:51:32;8.70;23.30
42663;DHT22;44330;51.360;6.686;2023-03-14T13:54:01;8.90;36.10
42663;DHT22;44330;51.360;6.686;2023-03-14T13:56:31;9.00;22.60
42663;DHT22;44330;51.360;6.686;2023-03-14T13:58:57;9.20;4.60
42663;DHT22;44330;51.360;6.686;2023-03-14T14:01:26;9.40;12.90
42663;DHT22;44330;51.360;6.686;2023-03-14T14:03:55;9.50;1.00
42663;DHT22;44330;51.360;6.686;2023-03-14T14:06:46;9.50;1.00
42663;DHT22;44330;51.360;6.686;2023-03-14T14:09:19;9.30;1.00
42663;DHT22;44330;51.360;6.686;2023-03-14T14:14:23;9.50;1.00
42663;DHT22;44330;51.360;6.686;2023-03-14T14:16:50;9.80;99.90
42663;DHT22;44330;51.360;6.686;2023-03-14T14:19:17;10.00;65.80
42663;DHT22;44330;51.360;6.686;2023-03-14T14:21:51;10.30;99.90
42663;DHT22;44330;51.360;6.686;2023-03-14T14:24:28;10.40;99.90
42663;DHT22;44330;51.360;6.686;2023-03-14T14:26:59;10.40;99.90
42663;DHT22;44330;51.360;6.686;2023-03-14T14:29:34;10.40;99.90
42663;DHT22;44330;51.360;6.686;2023-03-14T14:32:14;10.30;99.90
42663;DHT22;44330;51.360;6.686;2023-03-14T14:35:05;10.10;99.90
42663;DHT22;44330;51.360;6.686;2023-03-14T14:37:34;9.90;99.90
42663;DHT22;44330;51.360;6.686;2023-03-14T14:40:10;9.80;99.90
42663;DHT22;44330;51.360;6.686;2023-03-14T14:42:39;9.60;99.90
42663;DHT22;44330;51.360;6.686;2023-03-14T14:45:09;9.50;99.10
42663;DHT22;44330;51.360;6.686;2023-03-14T14:47:51;9.40;99.90
42663;DHT22;44330;51.360;6.686;2023-03-14T14:53:39;9.20;38.50
42663;DHT22;44330;51.360;6.686;2023-03-14T14:56:26;9.20;36.20
42663;DHT22;44330;51.360;6.686;2023-03-14T14:58:59;9.20;76.40
42663;DHT22;44330;51.360;6.686;2023-03-14T15:01:36;9.30;99.90
42663;DHT22;44330;51.360;6.686;2023-03-14T15:04:04;9.50;59.50
42663;DHT22;44330;51.360;6.686;2023-03-14T15:06:34;9.60;49.20
42663;DHT22;44330;51.360;6.686;2023-03-14T15:09:00;9.60;1.00
42663;DHT22;44330;51.360;6.686;2023-03-14T15:11:26;9.50;10.70
42663;DHT22;44330;51.360;6.686;2023-03-14T15:13:52;9.50;1.00
42663;DHT22;44330;51.360;6.686;2023-03-14T15:16:21;9.30;1.00
42663;DHT22;44330;51.360;6.686;2023-03-14T15:18:49;9.30;1.00
42663;DHT22;44330;51.360;6.686;2023-03-14T15:21:15;9.20;1.00
42663;DHT22;44330;51.360;6.686;2023-03-14T15:23:41;9.30;1.00
42663;DHT22;44330;51.360;6.686;2023-03-14T15:26:15;9.20;1.00
42663;DHT22;44330;51.360;6.686;2023-03-14T15:28:41;9.20;1.00
42663;DHT22;44330;51.360;6.686;2023-03-14T15:31:11;9.10;1.00
42663;DHT22;44330;51.360;6.686;2023-03-14T15:33:36;9.10;1.00
42663;DHT22;44330;51.360;6.686;2023-03-14T15:36:03;9.00;1.00
42663;DHT22;44330;51.360;6.686;2023-03-14T15:38:29;8.80;1.00
42663;DHT22;44330;51.360;6.686;2023-03-14T15:40:55;8.80;1.00
42663;DHT22;44330;51.360;6.686;2023-03-14T15:43:21;8.70;1.00
42663;DHT22;44330;51.360;6.686;2023-03-14T15:45:46;8.80;1.00
42663;DHT22;44330;51.360;6.686;2023-03-14T15:48:18;8.80;1.00
42663;DHT22;44330;51.360;6.686;2023-03-14T15:50:44;8.70;1.00
42663;DHT22;44330;51.360;6.686;2023-03-14T15:53:10;8.60;1.00
42663;DHT22;44330;51.360;6.686;2023-03-14T15:55:36;8.70;1.00
42663;DHT22;44330;51.360;6.686;2023-03-14T15:58:02;8.70;1.00
42663;DHT22;44330;51.360;6.686;2023-03-14T16:00:29;8.60;1.00
42663;DHT22;44330;51.360;6.686;2023-03-14T16:02:55;8.50;1.00
42663;DHT22;44330;51.360;6.686;2023-03-14T16:05:21;8.50;1.00
42663;DHT22;44330;51.360;6.686;2023-03-14T16:07:48;8.40;1.00
42663;DHT22;44330;51.360;6.686;2023-03-14T16:10:15;8.40;1.00
42663;DHT22;44330;51.360;6.686;2023-03-14T16:12:41;8.40;1.00
42663;DHT22;44330;51.360;6.686;2023-03-14T16:15:08;8.40;1.00
42663;DHT22;44330;51.360;6.686;2023-03-14T16:17:34;8.40;1.00
42663;DHT22;44330;51.360;6.686;2023-03-14T16:20:00;8.30;1.00
42663;DHT22;44330;51.360;6.686;2023-03-14T16:22:28;8.30;1.00
42663;DHT22;44330;51.360;6.686;2023-03-14T16:24:58;8.20;1.00
42663;DHT22;44330;51.360;6.686;2023-03-14T16:27:24;8.20;1.00
42663;DHT22;44330;51.360;6.686;2023-03-14T16:29:49;8.10;1.00
42663;DHT22;44330;51.360;6.686;2023-03-14T16:32:15;8.10;1.00
42663;DHT22;44330;51.360;6.686;2023-03-14T16:34:41;8.00;1.00
42663;DHT22;44330;51.360;6.686;2023-03-14T16:37:06;8.00;1.00
42663;DHT22;44330;51.360;6.686;2023-03-14T16:39:32;7.80;1.00
42663;DHT22;44330;51.360;6.686;2023-03-14T16:41:58;7.80;1.00
42663;DHT22;44330;51.360;6.686;2023-03-14T16:44:24;7.70;1.00
42663;DHT22;44330;51.360;6.686;2023-03-14T16:46:49;7.70;1.00
42663;DHT22;44330;51.360;6.686;2023-03-14T16:49:15;7.70;1.00
42663;DHT22;44330;51.360;6.686;2023-03-14T16:51:41;7.60;1.00
42663;DHT22;44330;51.360;6.686;2023-03-14T16:54:07;7.60;1.00
42663;DHT22;44330;51.360;6.686;2023-03-14T16:56:33;7.50;1.00
42663;DHT22;44330;51.360;6.686;2023-03-14T16:58:58;7.50;1.00
42663;DHT22;44330;51.360;6.686;2023-03-14T17:01:24;7.40;1.00
42663;DHT22;44330;51.360;6.686;2023-03-14T17:03:50;7.40;1.00
42663;DHT22;44330;51.360;6.686;2023-03-14T17:06:19;7.50;1.00
42663;DHT22;44330;51.360;6.686;2023-03-14T17:08:45;7.60;1.00
42663;DHT22;44330;51.360;6.686;2023-03-14T17:11:11;7.50;1.00
42663;DHT22;44330;51.360;6.686;2023-03-14T17:13:37;7.40;1.00
42663;DHT22;44330;51.360;6.686;2023-03-14T17:16:03;7.40;1.00
42663;DHT22;44330;51.360;6.686;2023-03-14T17:18:29;7.40;1.00
42663;DHT22;44330;51.360;6.686;2023-03-14T17:20:56;7.30;99.90
42663;DHT22;44330;51.360;6.686;2023-03-14T17:23:24;7.20;1.00
42663;DHT22;44330;51.360;6.686;2023-03-14T17:25:50;7.20;1.00
42663;DHT22;44330;51.360;6.686;2023-03-14T17:28:17;7.20;1.00
42663;DHT22;44330;51.360;6.686;2023-03-14T17:30:43;7.20;1.00